Time;durP1;ratioP1;P1;durP2;ratioP2;P2;SDS_P1;SDS_P2;PMS_P1;PMS_P2;Temp;Humidity;BMP_temperature;BMP_pressure;BME280_temperature;BME280_humidity;BME280_pressure;Samples;Min_cycle;Max_cycle;Signal;HPM_P1;HPM_P2
2024/04/14 00:01:08;;;;;;;4.93;1.33;;;;;;;7.96;72.11;101518.50;5451192;26;20033;-61
2024/04/14 00:03:37;;;;;;;14.35;1.75;;;;;;;7.94;72.16;101519.94;5447694;26;20013;-61
2024/04/14 00:06:04;;;;;;;9.90;2.17;;;;;;;7.91;72.49;101524.13;5473184;26;20002;-61
2024/04/14 00:08:32;;;;;;;6.93;1.83;;;;;;;7.89;72.24;101533.78;5484242;26;20530;-62
2024/04/14 00:11:01;;;;;;;6.07;1.60;;;;;;;7.87;72.88;101536.88;5450494;26;20006;-62
2024/04/14 00:13:28;;;;;;;11.05;2.17;;;;;;;7.84;72.50;101529.22;5473627;26;20014;-62
2024/04/14 00:15:59;;;;;;;11.25;2.00;;;;;;;7.83;72.62;101521.25;5455033;26;20026;-61
2024/04/14 00:18:27;;;;;;;7.35;1.45;;;;;;;7.79;73.02;101526.56;5462058;26;20835;-61
2024/04/14 00:20:55;;;;;;;7.22;2.63;;;;;;;7.79;73.13;101531.25;5448178;26;20076;-61
2024/04/14 00:23:22;;;;;;;13.35;1.60;;;;;;;7.79;73.07;101532.09;5448382;26;20055;-61
2024/04/14 00:25:50;;;;;;;6.53;1.52;;;;;;;7.79;73.11;101540.34;5447670;26;20019;-61
2024/04/14 00:28:17;;;;;;;8.52;2.00;;;;;;;7.79;73.12;101548.63;5448003;26;20086;-61
2024/04/14 00:30:47;;;;;;;5.55;1.90;;;;;;;7.77;73.36;101541.78;5416139;26;20003;-61
2024/04/14 00:33:15;;;;;;;7.05;1.63;;;;;;;7.74;73.41;101545.97;5480827;26;20447;-61
2024/04/14 00:35:42;;;;;;;12.60;3.42;;;;;;;7.75;73.59;101553.13;5484038;26;20002;-61
2024/04/14 00:38:09;;;;;;;3.42;1.60;;;;;;;7.72;73.25;101550.97;5484178;26;20014;-61
2024/04/14 00:40:38;;;;;;;8.98;2.10;;;;;;;7.69;73.57;101554.34;5483994;26;20010;-62
2024/04/14 00:43:05;;;;;;;13.38;2.65;;;;;;;7.68;73.58;101552.69;5481639;26;20070;-62
2024/04/14 00:45:33;;;;;;;8.48;1.70;;;;;;;7.64;73.96;101551.69;5464760;26;20040;-61
2024/04/14 00:48:00;;;;;;;7.63;2.28;;;;;;;7.60;74.41;101542.38;5446080;26;20785;-61
2024/04/14 00:50:28;;;;;;;9.23;1.83;;;;;;;7.58;74.22;101550.16;5447721;26;20445;-62
2024/04/14 00:52:56;;;;;;;15.88;1.80;;;;;;;7.58;74.27;101547.41;5447366;26;20002;-61
2024/04/14 00:55:23;;;;;;;9.85;1.88;;;;;;;7.55;74.16;101548.00;5447626;26;20820;-61
2024/04/14 00:57:51;;;;;;;14.30;1.80;;;;;;;7.55;74.28;101548.00;5445390;26;20452;-61
2024/04/14 01:00:22;;;;;;;7.18;1.30;;;;;;;7.54;74.40;101540.88;5447748;26;20061;-61
2024/04/14 01:02:53;;;;;;;11.83;4.17;;;;;;;7.55;74.80;101545.25;5447483;26;20002;-61
2024/04/14 01:05:22;;;;;;;6.15;1.40;;;;;;;7.54;74.86;101537.28;5447283;26;20521;-62
2024/04/14 01:07:54;;;;;;;4.68;1.80;;;;;;;7.52;74.54;101534.84;5476474;26;20002;-62
2024/04/14 01:10:23;;;;;;;10.40;2.13;;;;;;;7.51;75.00;101535.16;5467530;26;20016;-62
2024/04/14 01:12:51;;;;;;;9.93;2.97;;;;;;;7.47;75.28;101529.41;5483457;26;20345;-61
2024/04/14 01:15:19;;;;;;;10.57;2.03;;;;;;;7.45;75.38;101533.59;5483393;26;20006;-62
2024/04/14 01:17:46;;;;;;;11.70;2.53;;;;;;;7.44;75.48;101529.25;5481372;26;20452;-62
2024/04/14 01:20:14;;;;;;;8.63;1.98;;;;;;;7.42;75.30;101535.03;5483196;26;20782;-61
2024/04/14 01:22:41;;;;;;;17.40;3.78;;;;;;;7.40;75.53;101534.53;5483097;26;20010;-61
2024/04/14 01:25:09;;;;;;;7.90;2.00;;;;;;;7.38;75.67;101528.50;5482400;26;20436;-61
2024/04/14 01:27:37;;;;;;;14.32;2.10;;;;;;;7.38;75.78;101525.75;5461666;26;20031;-62
2024/04/14 01:30:06;;;;;;;7.07;1.40;;;;;;;7.38;75.78;101535.97;5475786;26;20463;-62
2024/04/14 01:32:34;;;;;;;11.40;2.17;;;;;;;7.35;76.06;101527.19;5477392;26;20584;-62
2024/04/14 01:35:02;;;;;;;8.27;2.42;;;;;;;7.34;76.03;101532.97;5477571;26;20471;-61
2024/04/14 01:37:29;;;;;;;8.80;1.65;;;;;;;7.31;76.00;101541.84;5463245;26;20102;-61
2024/04/14 01:39:56;;;;;;;15.45;2.60;;;;;;;7.27;76.23;101541.66;5481353;26;20006;-61
2024/04/14 01:42:24;;;;;;;9.65;1.73;;;;;;;7.25;76.63;101549.38;5452591;26;20027;-61
2024/04/14 01:44:51;;;;;;;9.68;1.83;;;;;;;7.22;77.01;101539.00;5455403;26;20785;-61
2024/04/14 01:47:19;;;;;;;15.80;2.10;;;;;;;7.21;76.71;101542.88;5444143;26;20011;-61
2024/04/14 01:49:46;;;;;;;10.27;2.40;;;;;;;7.21;76.94;101539.28;5466808;26;20474;-61
2024/04/14 01:52:14;;;;;;;12.13;1.80;;;;;;;7.19;77.23;101552.56;5482908;26;19998;-61
2024/04/14 01:54:42;;;;;;;9.40;2.17;;;;;;;7.19;77.09;101544.28;5482580;26;19998;-61
2024/04/14 01:57:09;;;;;;;10.02;2.85;;;;;;;7.16;77.35;101544.91;5482125;26;20869;-61
2024/04/14 01:59:37;;;;;;;6.88;1.60;;;;;;;7.15;77.36;101541.31;5482505;26;20863;-61
2024/04/14 02:02:05;;;;;;;8.40;1.75;;;;;;;7.13;77.39;101545.50;5482823;26;20501;-61
2024/04/14 02:04:33;;;;;;;15.75;3.15;;;;;;;7.13;77.59;101551.00;5482890;26;20005;-61
2024/04/14 02:07:01;;;;;;;12.55;2.15;;;;;;;7.13;77.60;101556.50;5479933;26;20079;-61
2024/04/14 02:09:28;;;;;;;14.50;2.60;;;;;;;7.10;77.73;101557.09;5462124;26;20013;-61
2024/04/14 02:11:55;;;;;;;10.63;2.47;;;;;;;7.10;77.75;101554.34;5482100;26;20010;-61
2024/04/14 02:14:23;;;;;;;12.85;2.92;;;;;;;7.08;77.79;101554.66;5471763;26;20041;-61
2024/04/14 02:16:51;;;;;;;10.50;1.90;;;;;;;7.07;78.34;101557.75;5473998;26;20002;-61
2024/04/14 02:19:18;;;;;;;12.15;2.42;;;;;;;7.07;78.22;101557.75;5477427;26;20466;-62
2024/04/14 02:21:45;;;;;;;14.70;2.00;;;;;;;7.08;78.04;101545.59;5480427;26;20460;-61
2024/04/14 02:24:13;;;;;;;7.65;2.13;;;;;;;7.06;78.28;101561.59;5458368;26;20018;-61
2024/04/14 02:26:40;;;;;;;15.75;3.10;;;;;;;7.03;78.48;101553.94;5449101;26;20006;-61
2024/04/14 02:29:08;;;;;;;19.90;3.08;;;;;;;7.02;78.73;101558.63;5453823;26;20075;-61
2024/04/14 02:31:35;;;;;;;12.13;3.58;;;;;;;7.00;78.74;101560.88;5449706;26;20014;-61
2024/04/14 02:34:02;;;;;;;16.25;2.90;;;;;;;6.99;78.59;101572.19;5477721;26;20010;-62
2024/04/14 02:36:30;;;;;;;11.32;2.97;;;;;;;7.00;78.97;101557.28;5458915;26;20058;-61
2024/04/14 02:38:57;;;;;;;19.77;3.65;;;;;;;7.00;78.92;101562.78;5476352;26;20820;-61
2024/04/14 02:41:25;;;;;;;19.83;3.58;;;;;;;6.99;79.22;101566.69;5445425;26;20003;-61
2024/04/14 02:43:52;;;;;;;11.30;2.70;;;;;;;6.97;79.10;101558.72;5445526;26;20018;-61
2024/04/14 02:46:20;;;;;;;13.15;2.90;;;;;;;6.95;79.40;101571.16;5471001;26;20013;-61
2024/04/14 02:48:50;;;;;;;8.05;1.92;;;;;;;6.96;79.26;101570.03;5477723;26;20436;-61
2024/04/14 02:51:18;;;;;;;22.25;5.80;;;;;;;6.95;79.26;101565.63;5463198;26;20465;-61
2024/04/14 02:53:46;;;;;;;13.38;4.97;;;;;;;6.92;79.66;101567.06;5480116;26;20029;-61
2024/04/14 02:56:14;;;;;;;8.98;2.00;;;;;;;6.92;79.37;101563.47;5461936;26;20018;-61
2024/04/14 02:58:41;;;;;;;9.88;1.80;;;;;;;6.88;79.73;101565.22;5451787;26;20081;-61
2024/04/14 03:01:12;;;;;;;14.10;3.42;;;;;;;6.87;79.54;101558.06;5323936;21;20021;-57
2024/04/14 03:03:40;;;;;;;10.38;1.48;;;;;;;6.86;79.58;101550.94;5480585;26;20825;-58
2024/04/14 03:06:08;;;;;;;10.20;2.00;;;;;;;6.86;80.15;101561.94;5458436;26;20056;-58
2024/04/14 03:08:36;;;;;;;9.05;1.92;;;;;;;6.85;79.92;101565.81;5454676;26;20014;-59
2024/04/14 03:11:04;;;;;;;14.73;2.08;;;;;;;6.85;80.00;101554.81;5491038;26;20019;-58
2024/04/14 03:13:31;;;;;;;16.40;2.95;;;;;;;6.84;80.30;101553.16;5478005;26;20034;-59
2024/04/14 03:16:02;;;;;;;13.15;2.95;;;;;;;6.83;80.38;101551.53;5472545;26;20006;-59
2024/04/14 03:18:30;;;;;;;5.65;1.70;;;;;;;6.84;80.31;101553.16;5462275;26;20014;-58
2024/04/14 03:20:58;;;;;;;7.55;1.60;;;;;;;6.83;80.18;101544.06;5452955;26;20014;-58
2024/04/14 03:23:27;;;;;;;15.60;2.83;;;;;;;6.83;80.62;101554.28;5467214;26;20073;-60
2024/04/14 03:25:55;;;;;;;5.07;1.73;;;;;;;6.80;80.37;101547.47;5441725;26;20022;-58
2024/04/14 03:28:25;;;;;;;15.25;4.15;;;;;;;6.80;80.35;101541.13;5448652;26;20043;-58
2024/04/14 03:30:58;;;;;;;19.05;2.38;;;;;;;6.77;80.57;101542.56;5457315;26;20444;-58
2024/04/14 03:33:26;;;;;;;13.68;3.22;;;;;;;6.78;80.73;101543.38;5471474;26;20007;-60
2024/04/14 03:36:04;;;;;;;11.50;2.47;;;;;;;6.77;80.61;101552.72;5449812;26;20007;-59
2024/04/14 03:38:32;;;;;;;9.55;2.20;;;;;;;6.73;80.78;101564.34;5453060;26;20126;-57
2024/04/14 03:41:00;;;;;;;9.98;1.67;;;;;;;6.70;80.74;101559.44;5479574;26;20013;-58
2024/04/14 03:43:28;;;;;;;18.15;3.70;;;;;;;6.69;80.81;101557.00;5468380;26;20413;-58
2024/04/14 03:45:55;;;;;;;13.18;2.25;;;;;;;6.67;80.97;101554.53;5454334;26;20045;-58
2024/04/14 03:48:23;;;;;;;8.10;1.77;;;;;;;6.65;81.13;101548.50;5448055;26;20084;-58
2024/04/14 03:50:51;;;;;;;6.57;1.77;;;;;;;6.64;81.49;101548.81;5455584;26;20024;-58
2024/04/14 03:53:19;;;;;;;14.52;3.20;;;;;;;6.62;81.32;101540.03;5469961;26;20002;-58
2024/04/14 03:55:48;;;;;;;12.98;2.30;;;;;;;6.60;81.48;101548.59;5482970;26;20006;-58
2024/04/14 03:58:15;;;;;;;8.45;2.38;;;;;;;6.61;81.36;101543.91;5481881;26;20559;-57
2024/04/14 04:00:43;;;;;;;12.60;2.22;;;;;;;6.59;81.53;101541.44;5450490;26;19999;-58
2024/04/14 04:03:11;;;;;;;6.30;1.55;;;;;;;6.57;81.63;101546.44;5477237;26;20006;-57
2024/04/14 04:05:39;;;;;;;11.90;2.75;;;;;;;6.57;81.75;101543.69;5480956;26;20001;-58
2024/04/14 04:08:06;;;;;;;10.52;1.73;;;;;;;6.57;82.07;101537.34;5481360;26;20013;-60
2024/04/14 04:10:35;;;;;;;9.65;1.73;;;;;;;6.55;82.25;101534.91;5455891;26;20007;-57
2024/04/14 04:13:02;;;;;;;7.25;1.77;;;;;;;6.53;82.08;101539.91;5472475;26;20017;-58
2024/04/14 04:15:29;;;;;;;13.75;2.47;;;;;;;6.53;82.12;101534.41;5478147;26;20018;-59
2024/04/14 04:17:58;;;;;;;20.45;2.13;;;;;;;6.53;82.07;101531.66;5470100;26;20506;-59
2024/04/14 04:20:25;;;;;;;10.60;2.08;;;;;;;6.51;82.26;101528.34;5481373;26;20010;-60
2024/04/14 04:22:53;;;;;;;21.40;1.88;;;;;;;6.50;82.20;101523.16;5450838;26;20398;-58
2024/04/14 04:25:20;;;;;;;7.72;1.73;;;;;;;6.50;82.66;101524.00;5461315;26;20076;-60
2024/04/14 04:27:48;;;;;;;15.50;2.25;;;;;;;6.48;82.75;101523.47;5453024;26;20031;-60
2024/04/14 04:30:16;;;;;;;13.13;2.85;;;;;;;6.49;82.58;101513.28;5463063;26;20009;-54
2024/04/14 04:32:44;;;;;;;4.88;1.50;;;;;;;6.46;82.81;101511.94;5466476;26;20058;-58
2024/04/14 04:35:11;;;;;;;11.15;1.95;;;;;;;6.46;82.77;101511.94;5480441;25;20011;-57
2024/04/14 04:37:39;;;;;;;7.65;1.08;;;;;;;6.46;82.89;101514.69;5449162;26;20014;-55
2024/04/14 04:40:06;;;;;;;12.80;2.95;;;;;;;6.45;82.75;101507.56;5464306;26;19998;-58
2024/04/14 04:42:34;;;;;;;12.13;2.03;;;;;;;6.45;82.86;101506.75;5479085;26;20024;-58
2024/04/14 04:45:01;;;;;;;7.55;1.77;;;;;;;6.44;82.95;101505.94;5479210;26;20335;-57
2024/04/14 04:47:29;;;;;;;8.88;1.90;;;;;;;6.43;83.13;101504.31;5481715;26;20081;-55
2024/04/14 04:49:57;;;;;;;7.93;2.75;;;;;;;6.43;83.11;101498.00;5471199;26;20017;-56
2024/04/14 04:52:24;;;;;;;14.38;3.15;;;;;;;6.42;83.07;101497.16;5470553;26;20007;-57
2024/04/14 04:54:51;;;;;;;5.85;1.45;;;;;;;6.41;82.88;101491.94;5475322;26;20454;-57
2024/04/14 04:57:19;;;;;;;6.97;1.30;;;;;;;6.41;83.29;101502.94;5472724;26;20074;-58
2024/04/14 04:59:46;;;;;;;7.13;2.35;;;;;;;6.40;83.22;101501.34;5453303;26;20003;-58
2024/04/14 05:02:13;;;;;;;12.13;4.20;;;;;;;6.39;83.01;101495.00;5468035;26;20014;-58
2024/04/14 05:04:41;;;;;;;10.90;1.52;;;;;;;6.38;83.35;101496.13;5481876;26;20336;-58
2024/04/14 05:07:09;;;;;;;4.85;1.55;;;;;;;6.39;83.03;101503.25;5466679;26;20007;-57
2024/04/14 05:09:36;;;;;;;8.38;2.38;;;;;;;6.38;83.08;101507.13;5473646;26;20033;-56
2024/04/14 05:12:04;;;;;;;10.60;1.92;;;;;;;6.38;83.42;101498.88;5493340;25;20002;-58
2024/04/14 05:14:31;;;;;;;15.70;2.22;;;;;;;6.39;83.14;101502.44;5462806;26;20070;-57
2024/04/14 05:16:59;;;;;;;14.77;1.40;;;;;;;6.38;83.08;101501.63;5457451;26;20076;-58
2024/04/14 05:19:26;;;;;;;7.65;1.50;;;;;;;6.37;83.26;101494.50;5470697;26;20002;-57
2024/04/14 05:21:54;;;;;;;9.48;1.88;;;;;;;6.35;83.54;101494.00;5477157;26;19999;-59
2024/04/14 05:24:21;;;;;;;13.70;2.20;;;;;;;6.34;83.40;101502.53;5477435;26;20074;-58
2024/04/14 05:26:48;;;;;;;7.78;1.58;;;;;;;6.31;83.74;101501.19;5483532;26;19999;-59
2024/04/14 05:29:16;;;;;;;9.63;1.00;;;;;;;6.32;83.71;101508.31;5482543;26;20002;-58
2024/04/14 05:31:43;;;;;;;13.25;2.00;;;;;;;6.29;83.80;101492.41;5478766;26;20009;-57
2024/04/14 05:34:11;;;;;;;10.10;2.20;;;;;;;6.28;83.90;101490.78;5485799;26;20020;-59
2024/04/14 05:36:38;;;;;;;10.55;2.28;;;;;;;6.29;83.98;101481.41;5475451;26;20047;-58
2024/04/14 05:39:06;;;;;;;8.20;1.50;;;;;;;6.29;84.21;101480.59;5463092;26;20003;-59
2024/04/14 05:41:33;;;;;;;5.55;1.60;;;;;;;6.29;84.24;101486.91;5453768;26;20007;-60
2024/04/14 05:44:01;;;;;;;7.60;1.63;;;;;;;6.30;84.20;101488.53;5459450;26;20050;-59
2024/04/14 05:46:28;;;;;;;8.82;2.10;;;;;;;6.30;84.19;101488.53;5473832;26;20013;-58
2024/04/14 05:48:56;;;;;;;6.25;1.42;;;;;;;6.31;84.17;101484.69;5469376;26;20003;-59
2024/04/14 05:51:43;;;;;;;7.03;1.73;;;;;;;6.33;84.21;101498.94;5479572;26;20463;-57
2024/04/14 05:54:11;;;;;;;6.07;1.20;;;;;;;6.33;84.49;101500.91;5459633;26;20017;-59
2024/04/14 05:56:38;;;;;;;11.52;4.30;;;;;;;6.34;84.29;101497.03;5452694;26;20051;-59
2024/04/14 05:59:05;;;;;;;11.07;2.25;;;;;;;6.34;84.48;101484.09;5458252;26;20006;-60
2024/04/14 06:01:33;;;;;;;11.10;1.85;;;;;;;6.35;84.54;101496.75;5469354;26;19998;-56
2024/04/14 06:04:01;;;;;;;15.35;1.60;;;;;;;6.36;84.42;101494.78;5474845;26;20002;-58
2024/04/14 06:06:29;;;;;;;10.90;1.83;;;;;;;6.40;84.51;101493.91;5463483;26;20059;-58
2024/04/14 06:08:57;;;;;;;4.10;1.35;;;;;;;6.41;84.78;101484.50;5474482;26;19999;-59
2024/04/14 06:11:24;;;;;;;11.00;1.75;;;;;;;6.44;84.52;101500.44;5480708;26;20076;-58
2024/04/14 06:13:51;;;;;;;8.90;2.17;;;;;;;6.45;84.62;101488.31;5464934;26;20516;-60
2024/04/14 06:16:19;;;;;;;8.63;1.60;;;;;;;6.47;84.56;101494.34;5475683;26;20025;-57
2024/04/14 06:18:48;;;;;;;11.93;2.13;;;;;;;6.49;84.79;101480.25;5465377;26;20469;-58
2024/04/14 06:21:16;;;;;;;7.25;1.45;;;;;;;6.51;84.72;101481.59;5470039;26;20003;-58
2024/04/14 06:23:45;;;;;;;9.65;2.65;;;;;;;6.54;84.57;101485.72;5449297;26;20006;-57
2024/04/14 06:26:12;;;;;;;7.82;1.63;;;;;;;6.56;84.93;101486.22;5451941;26;20002;-58
2024/04/14 06:28:39;;;;;;;7.15;1.30;;;;;;;6.60;84.84;101490.81;5466038;26;20079;-56
2024/04/14 06:31:07;;;;;;;11.65;1.67;;;;;;;6.62;84.64;101496.81;5455079;26;20018;-58
2024/04/14 06:33:34;;;;;;;6.25;2.22;;;;;;;6.63;84.51;101492.97;5484380;26;20073;-58
2024/04/14 06:36:02;;;;;;;9.38;2.45;;;;;;;6.67;84.84;101491.22;5467428;26;20014;-58
2024/04/14 06:38:30;;;;;;;14.55;1.40;;;;;;;6.71;84.95;101494.22;5446665;26;20044;-57
2024/04/14 06:40:57;;;;;;;9.77;2.05;;;;;;;6.73;84.66;101487.28;5448635;26;20003;-58
2024/04/14 06:43:25;;;;;;;8.02;1.50;;;;;;;6.78;84.83;101480.06;5477389;26;20002;-57
2024/04/14 06:45:54;;;;;;;9.27;1.73;;;;;;;6.82;84.99;101478.34;5478607;26;20759;-58
2024/04/14 06:48:22;;;;;;;6.05;1.35;;;;;;;6.88;85.06;101488.16;5477506;26;20002;-58
2024/04/14 06:50:49;;;;;;;6.45;1.55;;;;;;;6.92;84.72;101481.72;5469883;26;20002;-58
2024/04/14 06:53:20;;;;;;;16.35;2.10;;;;;;;6.94;85.00;101481.41;5480181;26;20014;-59
2024/04/14 06:55:52;;;;;;;12.25;1.98;;;;;;;6.97;84.84;101478.06;5465069;26;20017;-59
2024/04/14 06:58:19;;;;;;;11.05;1.90;;;;;;;6.99;85.04;101481.34;5454594;26;20034;-57
2024/04/14 07:00:47;;;;;;;14.60;1.33;;;;;;;7.02;85.24;101476.03;5449377;26;20025;-58
2024/04/14 07:03:14;;;;;;;11.65;3.08;;;;;;;7.07;84.86;101484.19;5460213;26;20021;-55
2024/04/14 07:05:42;;;;;;;11.88;2.03;;;;;;;7.12;84.83;101480.56;5465582;26;20014;-57
2024/04/14 07:08:09;;;;;;;5.43;1.40;;;;;;;7.21;84.70;101495.22;5459283;26;20002;-55
2024/04/14 07:10:37;;;;;;;4.40;1.13;;;;;;;7.29;84.73;101475.25;5496933;26;20002;-58
2024/04/14 07:13:04;;;;;;;11.25;1.77;;;;;;;7.37;84.74;101491.06;5478708;26;19994;-58
2024/04/14 07:15:32;;;;;;;11.48;1.40;;;;;;;7.40;84.54;101486.88;5481487;26;20075;-58
2024/04/14 07:17:59;;;;;;;6.72;1.52;;;;;;;7.44;84.52;101485.94;5480240;26;19998;-58
2024/04/14 07:20:27;;;;;;;6.80;1.15;;;;;;;7.46;84.55;101486.47;5480942;26;20011;-58
2024/04/14 07:22:56;;;;;;;8.25;1.83;;;;;;;7.46;84.74;101482.91;5468110;26;20014;-57
2024/04/14 07:25:23;;;;;;;3.33;0.98;;;;;;;7.48;84.63;101484.22;5458676;26;19999;-58
2024/04/14 07:27:50;;;;;;;6.15;1.25;;;;;;;7.52;84.69;101478.94;5475493;26;20047;-56
2024/04/14 07:30:18;;;;;;;4.22;1.00;;;;;;;7.56;84.48;101489.03;5461801;26;20459;-58
2024/04/14 07:32:45;;;;;;;7.35;1.35;;;;;;;7.59;84.24;101488.41;5481696;26;20058;-58
2024/04/14 07:35:13;;;;;;;5.60;0.90;;;;;;;7.62;84.13;101474.03;5458003;25;20042;-59
2024/04/14 07:37:40;;;;;;;10.05;1.88;;;;;;;7.66;84.15;101482.47;5460826;26;20021;-59
2024/04/14 07:40:08;;;;;;;5.47;1.52;;;;;;;7.69;84.34;101488.19;5469349;26;20021;-58
2024/04/14 07:42:36;;;;;;;5.80;1.23;;;;;;;7.71;84.38;101488.69;5471214;26;20036;-61
2024/04/14 07:45:04;;;;;;;4.07;0.93;;;;;;;7.74;84.00;101481.75;5463983;26;20437;-59
2024/04/14 07:47:32;;;;;;;8.68;2.00;;;;;;;7.77;83.94;101484.72;5470347;26;20014;-59
2024/04/14 07:49:59;;;;;;;7.97;1.15;;;;;;;7.83;84.15;101480.72;5478700;26;20012;-62
2024/04/14 07:52:26;;;;;;;10.02;1.15;;;;;;;7.94;84.09;101473.84;5453376;26;20047;-61
2024/04/14 07:54:54;;;;;;;7.55;0.70;;;;;;;8.12;84.13;101485.06;5446278;26;20088;-61
2024/04/14 07:57:21;;;;;;;6.72;1.00;;;;;;;8.31;83.98;101485.75;5459045;26;20009;-60
2024/04/14 07:59:49;;;;;;;10.80;1.73;;;;;;;8.55;83.56;101489.03;5466460;26;20022;-60
2024/04/14 08:02:17;;;;;;;7.40;2.03;;;;;;;8.80;83.17;101473.75;5456926;26;20044;-61
2024/04/14 08:04:44;;;;;;;12.05;0.95;;;;;;;9.02;82.99;101488.34;5477614;26;20046;-60
2024/04/14 08:07:12;;;;;;;7.70;1.35;;;;;;;9.13;83.37;101473.13;5472917;26;20017;-60
2024/04/14 08:09:39;;;;;;;6.25;1.10;;;;;;;9.28;83.21;101468.31;5478652;26;20020;-61
2024/04/14 08:12:07;;;;;;;8.07;1.65;;;;;;;9.35;83.20;101461.19;5481975;26;20017;-60
2024/04/14 08:14:39;;;;;;;7.57;1.27;;;;;;;9.42;83.19;101464.31;5463431;26;20021;-60
2024/04/14 08:17:06;;;;;;;10.18;1.52;;;;;;;9.52;82.64;101458.50;5473296;26;20014;-60
2024/04/14 08:19:33;;;;;;;5.03;1.52;;;;;;;9.61;82.60;101456.56;5481645;26;20012;-59
2024/04/14 08:22:01;;;;;;;3.95;1.08;;;;;;;9.77;82.95;101466.03;5463793;26;20047;-59
2024/04/14 08:24:29;;;;;;;4.30;0.80;;;;;;;9.88;82.78;101463.75;5471628;26;20030;-60
2024/04/14 08:26:57;;;;;;;4.97;1.30;;;;;;;10.01;82.62;101478.59;5468165;26;20091;-61
2024/04/14 08:29:25;;;;;;;5.90;1.15;;;;;;;10.11;82.52;101465.25;5468842;26;20002;-61
2024/04/14 08:31:56;;;;;;;11.75;1.27;;;;;;;10.20;82.56;101466.13;5481124;26;20014;-61
2024/04/14 08:34:23;;;;;;;4.28;0.80;;;;;;;10.27;82.61;101458.13;5474894;26;20015;-62
2024/04/14 08:36:51;;;;;;;4.68;1.08;;;;;;;10.35;82.25;101462.84;5475495;26;20027;-63
2024/04/14 08:39:18;;;;;;;8.65;1.02;;;;;;;10.58;82.64;101463.50;5477428;26;20815;-60
2024/04/14 08:41:47;;;;;;;3.53;0.77;;;;;;;10.95;82.68;101467.50;5479887;26;20006;-61
2024/04/14 08:44:15;;;;;;;1.60;0.80;;;;;;;11.08;81.85;101449.03;5454571;26;20023;-61
2024/04/14 08:46:46;;;;;;;6.65;1.40;;;;;;;11.12;81.56;101456.34;5467893;26;20041;-61
2024/04/14 08:49:13;;;;;;;5.18;1.10;;;;;;;11.07;81.23;101442.66;5456463;26;20017;-61
2024/04/14 08:51:41;;;;;;;4.68;1.27;;;;;;;11.09;80.55;101445.94;5456024;26;20034;-61
2024/04/14 08:54:08;;;;;;;3.78;1.58;;;;;;;11.12;80.29;101447.25;5469213;26;20424;-61
2024/04/14 08:56:36;;;;;;;8.00;1.05;;;;;;;11.10;79.44;101447.56;5457472;26;19999;-63
2024/04/14 08:59:07;;;;;;;2.72;0.80;;;;;;;11.08;79.35;101438.75;5471711;26;20017;-61
2024/04/14 09:01:35;;;;;;;3.50;0.82;;;;;;;11.18;79.54;101449.47;5470520;26;20002;-61
2024/04/14 09:04:06;;;;;;;4.47;0.85;;;;;;;11.67;79.25;101447.13;5462355;26;20007;-61
2024/04/14 09:06:35;;;;;;;3.80;1.00;;;;;;;12.34;78.29;101436.69;5457406;26;20337;-60
2024/04/14 09:09:02;;;;;;;3.47;1.30;;;;;;;12.96;77.17;101439.34;5461732;26;20890;-61
2024/04/14 09:11:30;;;;;;;5.65;1.80;;;;;;;13.39;76.36;101434.09;5456049;26;20022;-61
2024/04/14 09:13:58;;;;;;;5.82;1.02;;;;;;;13.74;75.29;101434.41;5458740;26;20002;-63
2024/04/14 09:16:25;;;;;;;8.52;1.20;;;;;;;14.24;75.12;101441.50;5464042;26;20097;-61
2024/04/14 09:18:53;;;;;;;4.32;1.05;;;;;;;14.63;74.21;101432.31;5451712;26;20022;-59
2024/04/14 09:21:20;;;;;;;2.70;0.88;;;;;;;15.01;73.60;101423.41;5460547;26;20015;-59
2024/04/14 09:23:55;;;;;;;3.15;0.88;;;;;;;15.25;72.22;101428.78;5461583;26;20056;-62
2024/04/14 09:26:25;;;;;;;7.15;0.98;;;;;;;15.12;70.94;101410.50;5481183;26;20014;-61
2024/04/14 09:29:07;;;;;;;3.45;0.98;;;;;;;14.93;71.78;101414.00;5460465;26;20023;-61
2024/04/14 09:31:35;;;;;;;2.20;0.88;;;;;;;14.78;70.58;101417.59;5468880;26;20371;-61
2024/04/14 09:34:06;;;;;;;7.68;1.73;;;;;;;14.44;69.75;101410.69;5479181;26;20001;-61
2024/04/14 09:36:36;;;;;;;4.70;1.02;;;;;;;13.99;69.46;101407.34;5472691;26;20390;-61
2024/04/14 09:39:05;;;;;;;3.17;0.88;;;;;;;13.65;69.88;101400.34;5480684;26;20130;-61
2024/04/14 09:41:36;;;;;;;6.13;1.15;;;;;;;13.41;70.05;101395.59;5453513;26;20013;-61
2024/04/14 09:44:05;;;;;;;3.63;1.20;;;;;;;13.46;70.08;101400.13;5464683;26;20837;-61
2024/04/14 09:46:33;;;;;;;3.22;1.00;;;;;;;13.64;69.58;101395.91;5458914;26;20007;-61
2024/04/14 09:49:01;;;;;;;6.72;1.30;;;;;;;13.62;68.78;101398.25;5465040;26;20008;-61
2024/04/14 09:51:29;;;;;;;14.68;1.50;;;;;;;13.50;68.50;101395.50;5468515;26;20003;-60
2024/04/14 09:53:58;;;;;;;6.78;1.20;;;;;;;13.53;68.10;101397.56;5462402;26;20007;-61
2024/04/14 09:56:26;;;;;;;5.07;1.50;;;;;;;13.34;67.57;101397.34;5463351;26;20418;-62
2024/04/14 09:58:55;;;;;;;6.78;1.25;;;;;;;13.15;67.44;101395.16;5466728;26;19999;-60
2024/04/14 10:01:30;;;;;;;10.52;3.30;;;;;;;13.16;67.46;101384.81;5476584;26;20020;-61
2024/04/14 10:04:03;;;;;;;3.72;1.25;;;;;;;13.35;66.87;101382.28;5476067;26;20011;-59
2024/04/14 10:06:33;;;;;;;5.03;1.10;;;;;;;13.39;66.53;101378.47;5446412;26;20087;-58
2024/04/14 10:09:01;;;;;;;4.22;1.58;;;;;;;13.30;66.11;101374.97;5467623;26;20002;-60
2024/04/14 10:11:31;;;;;;;7.82;1.45;;;;;;;13.08;66.13;101367.09;5457464;26;20002;-60
2024/04/14 10:14:01;;;;;;;3.45;1.08;;;;;;;13.01;66.08;101366.03;5452323;26;20088;-60
2024/04/14 10:16:28;;;;;;;3.97;1.10;;;;;;;13.02;66.33;101367.66;5462837;26;20460;-61
2024/04/14 10:19:04;;;;;;;5.28;1.13;;;;;;;13.14;65.97;101370.44;5465967;26;20102;-60
2024/04/14 10:21:33;;;;;;;5.22;1.05;;;;;;;13.21;65.66;101376.28;5447596;26;20742;-59
2024/04/14 10:24:03;;;;;;;5.57;0.90;;;;;;;13.05;64.97;101378.88;5456515;26;20143;-61
2024/04/14 10:26:31;;;;;;;12.05;1.92;;;;;;;12.92;65.74;101377.22;5471549;26;20006;-60
2024/04/14 10:28:59;;;;;;;5.72;0.90;;;;;;;12.91;65.50;101367.28;5479194;26;20413;-61
2024/04/14 10:31:29;;;;;;;6.43;1.20;;;;;;;12.86;65.53;101383.38;5471062;26;20013;-62
2024/04/14 10:34:09;;;;;;;7.35;1.13;;;;;;;12.83;65.42;101363.47;5453950;26;20765;-61
2024/04/14 10:36:42;;;;;;;5.50;1.05;;;;;;;12.86;65.54;101363.94;5451809;26;20034;-61
2024/04/14 10:39:14;;;;;;;3.15;1.40;;;;;;;12.98;65.18;101366.69;5457205;26;20003;-60
2024/04/14 10:41:42;;;;;;;7.30;0.93;;;;;;;13.14;64.72;101359.34;5478877;26;20002;-60
2024/04/14 10:44:21;;;;;;;3.50;0.98;;;;;;;13.23;64.78;101362.81;5450834;26;20075;-60
2024/04/14 10:46:49;;;;;;;1.58;0.75;;;;;;;13.29;64.11;101355.88;5466994;26;20006;-58
2024/04/14 10:49:18;;;;;;;5.25;0.88;;;;;;;13.22;64.14;101353.66;5459036;26;20003;-59
2024/04/14 10:51:45;;;;;;;10.02;1.45;;;;;;;13.15;64.05;101349.84;5460253;26;20007;-59
2024/04/14 10:54:13;;;;;;;7.50;1.10;;;;;;;13.03;64.27;101344.25;5470922;26;20002;-59
2024/04/14 10:56:40;;;;;;;9.13;1.52;;;;;;;13.04;64.54;101343.09;5461128;26;20485;-59
2024/04/14 10:59:13;;;;;;;7.30;1.92;;;;;;;13.00;64.33;101340.19;5471535;26;20018;-58
2024/04/14 11:01:41;;;;;;;7.30;1.08;;;;;;;12.97;63.56;101337.31;5468490;26;20002;-59
2024/04/14 11:04:14;;;;;;;2.83;1.00;;;;;;;12.96;63.62;101344.81;5454468;26;20002;-59
2024/04/14 11:06:45;;;;;;;3.13;0.82;;;;;;;12.95;63.75;101345.16;5462383;26;20508;-59
2024/04/14 11:09:14;;;;;;;7.57;1.20;;;;;;;12.95;63.82;101343.19;5469307;26;20013;-59
2024/04/14 11:11:42;;;;;;;3.75;0.88;;;;;;;12.95;63.59;101334.03;5464471;25;20008;-59
2024/04/14 11:14:10;;;;;;;4.80;0.77;;;;;;;12.97;63.73;101331.75;5469450;26;20007;-58
2024/04/14 11:16:38;;;;;;;9.63;0.90;;;;;;;13.02;63.46;101335.13;5475811;26;20107;-59
2024/04/14 11:19:06;;;;;;;2.38;0.85;;;;;;;13.05;63.38;101322.50;5459386;26;20035;-60
2024/04/14 11:21:36;;;;;;;3.20;0.82;;;;;;;13.01;63.19;101316.81;5472321;26;20012;-59
2024/04/14 11:24:03;;;;;;;4.75;1.10;;;;;;;12.94;63.11;101319.34;5464915;26;20017;-59
2024/04/14 11:26:30;;;;;;;10.20;1.95;;;;;;;12.84;62.96;101322.56;5472197;26;20013;-59
2024/04/14 11:28:59;;;;;;;2.15;0.80;;;;;;;12.78;62.58;101319.25;5464569;26;20024;-59
2024/04/14 11:31:28;;;;;;;6.18;0.98;;;;;;;12.74;62.75;101307.19;5470106;26;20014;-59
2024/04/14 11:33:55;;;;;;;4.03;0.80;;;;;;;12.75;62.73;101300.47;5477244;26;20006;-58